Portada
METAR-TAF:

METAR-TAF

Aeroports :

Magnitogorsk, Rússia

latitud: 53-23-36N, longitud: 058-45-24E, altitud: 436 m

Observació

L'informe es va fer fa 41 minuts, a les 13:00 UTC
Vent 2 kt del Est/Sud-Est
Temperatura 7°C
Humitat 57%
Pressió 1011 hPa
Visibilitat 10 km o més
Escasses núvols a una alçada de 4000 ft

METAR: USCM 311300Z 11001MPS 9999 FEW040 07/M01 Q1011 R36/090060 NOSIG RMK QFE720

Hora: 18:41 (13:41 UTC)

Pronòstic

L'informe es va fer fa 2 hores i 41 minuts, a les 11:00 UTC
Pronòstic vàlid del 31 a les 12 UTC al 31 a les 21 UTC
Vent 6 kt del Sud-Est amb ràfegues de 16 kt
Visibilitat: 6000 m
Cel cobert a una alçada de 1100 ft
Temporalment
l' 31 a les 12 UTC al 31 a les 21 UTC
Vent 6 kt del Est/Sud-Est amb ràfegues de 16 kt
Visibilitat: 3100 m
boirina, fum

TAF: USCM 311100Z 3112/3121 13003G08MPS 6000 OVC011 TEMPO 3112/3121 11003G08MPS 3100 BR FU

Observacions i pronòstics meteorològics de més de 4000 aeroports (METAR i TAF).

Les estacions disponibles són els punts grocs i vermells al mapa.

Posi el ratolí al punt desitjat per veure el nom de l'estació.

Feu clic per veure les observacions i els pronòstics meteorològics.

Per canviar el mapa: feu clic els botons verds amb una creu de color negre per apropar; al botó verd amb un guió per allunyar la imatge; o en les fletxes verdes per a mapes adjacents.


METAR-TAF: